Time;durP1;ratioP1;P1;durP2;ratioP2;P2;SDS_P1;SDS_P2;PMS_P1;PMS_P2;Temp;Humidity;BMP_temperature;BMP_pressure;BME280_temperature;BME280_humidity;BME280_pressure;Samples;Min_cycle;Max_cycle;Signal;HPM_P1;HPM_P2
2020/12/06 00:02:22;;;;;;;41.22;24.45;;;3.10;87.60;;;;;;4995303;28;20057;-73
2020/12/06 00:04:47;;;;;;;39.97;24.33;;;3.10;87.70;;;;;;4977705;28;20060;-73
2020/12/06 00:07:13;;;;;;;39.13;23.33;;;3.10;87.70;;;;;;4976882;28;20033;-73
2020/12/06 00:09:38;;;;;;;48.55;28.88;;;3.10;87.80;;;;;;4978370;28;20561;-73
2020/12/06 00:12:04;;;;;;;54.70;29.35;;;3.10;87.80;;;;;;4976582;28;20141;-74
2020/12/06 00:14:31;;;;;;;52.65;30.02;;;3.10;87.70;;;;;;4994412;28;20027;-73
2020/12/06 00:16:56;;;;;;;46.25;26.95;;;3.10;87.60;;;;;;4977304;28;20023;-73
2020/12/06 00:19:22;;;;;;;47.15;27.25;;;3.10;87.70;;;;;;4976607;28;20364;-73
2020/12/06 00:21:47;;;;;;;41.22;23.42;;;3.10;87.80;;;;;;4976531;28;20032;-73
2020/12/06 00:24:14;;;;;;;36.63;22.77;;;3.10;87.70;;;;;;4976700;28;20030;-73
2020/12/06 00:26:39;;;;;;;34.88;21.20;;;3.10;87.60;;;;;;4994311;28;20022;-73
2020/12/06 00:29:05;;;;;;;41.20;24.60;;;3.20;87.60;;;;;;4976428;28;20129;-73
2020/12/06 00:31:30;;;;;;;38.85;23.08;;;3.20;87.50;;;;;;4975923;28;20077;-72
2020/12/06 00:33:56;;;;;;;41.90;24.63;;;3.10;87.20;;;;;;4994307;28;20368;-73
2020/12/06 00:36:23;;;;;;;47.58;27.88;;;3.10;87.10;;;;;;4976015;28;20368;-72
2020/12/06 00:38:48;;;;;;;40.85;25.27;;;3.10;87.00;;;;;;4976095;28;20109;-73
2020/12/06 00:41:16;;;;;;;37.42;23.85;;;3.00;87.00;;;;;;4976503;28;20440;-73
2020/12/06 00:43:42;;;;;;;34.85;23.77;;;3.10;87.30;;;;;;4976398;28;20022;-73
2020/12/06 00:46:08;;;;;;;32.38;22.13;;;3.00;87.40;;;;;;4976246;28;20026;-73
2020/12/06 00:48:34;;;;;;;31.58;20.95;;;3.00;87.50;;;;;;4976323;28;20038;-73
2020/12/06 00:51:00;;;;;;;35.72;23.42;;;3.00;87.40;;;;;;4976086;28;20149;-73
2020/12/06 00:53:26;;;;;;;36.17;23.45;;;3.00;87.40;;;;;;4993913;28;20029;-73
2020/12/06 00:55:52;;;;;;;38.47;24.17;;;2.80;87.80;;;;;;4976157;28;20018;-73
2020/12/06 00:58:17;;;;;;;44.58;27.08;;;2.70;88.60;;;;;;4976758;28;20026;-73
2020/12/06 01:00:44;;;;;;;44.97;27.90;;;2.50;89.40;;;;;;4975956;28;20026;-72
2020/12/06 01:03:10;;;;;;;46.60;28.40;;;2.30;90.70;;;;;;4976222;28;20066;-72
2020/12/06 01:05:36;;;;;;;47.83;28.55;;;2.10;91.50;;;;;;4976126;28;20027;-72
2020/12/06 01:08:03;;;;;;;51.90;31.05;;;2.10;92.10;;;;;;4975909;28;20030;-72
2020/12/06 01:10:29;;;;;;;47.70;26.30;;;2.00;92.40;;;;;;4994271;28;20023;-73
2020/12/06 01:12:55;;;;;;;46.58;28.25;;;2.10;92.50;;;;;;4975850;28;20093;-73
2020/12/06 01:15:21;;;;;;;41.55;25.23;;;2.20;92.20;;;;;;4978532;28;20431;-73
2020/12/06 01:17:46;;;;;;;50.00;29.27;;;2.20;92.10;;;;;;4977033;28;20033;-73
2020/12/06 01:20:12;;;;;;;44.35;26.38;;;2.20;92.00;;;;;;4976051;28;20022;-73
2020/12/06 01:22:37;;;;;;;43.65;27.60;;;2.20;91.90;;;;;;4976856;28;20019;-73
2020/12/06 01:25:04;;;;;;;44.92;26.42;;;2.30;91.90;;;;;;4978432;28;20030;-73
2020/12/06 01:27:31;;;;;;;42.00;26.17;;;2.40;91.70;;;;;;4976890;28;20029;-73
2020/12/06 01:29:57;;;;;;;47.88;28.05;;;2.40;91.40;;;;;;4998109;28;20034;-77
2020/12/06 01:32:22;;;;;;;45.33;27.20;;;2.40;91.20;;;;;;4976035;28;20029;-73
2020/12/06 01:34:49;;;;;;;44.17;26.55;;;2.40;91.10;;;;;;4992388;28;20491;-72
2020/12/06 01:37:15;;;;;;;43.47;27.25;;;2.50;91.20;;;;;;4975694;28;20036;-73
2020/12/06 01:39:42;;;;;;;40.00;24.60;;;2.50;91.10;;;;;;4975572;28;20037;-72
2020/12/06 01:42:08;;;;;;;42.50;24.20;;;2.60;90.80;;;;;;4975689;28;20073;-72
2020/12/06 01:44:33;;;;;;;44.08;24.90;;;2.70;90.70;;;;;;4975638;28;20026;-72
2020/12/06 01:46:59;;;;;;;41.05;24.58;;;2.70;90.40;;;;;;4975643;28;20476;-76
2020/12/06 01:49:26;;;;;;;48.97;26.90;;;2.80;89.90;;;;;;4993309;28;20105;-72
2020/12/06 01:51:57;;;;;;;41.92;23.85;;;2.70;89.70;;;;;;4978832;28;20471;-71
2020/12/06 01:54:23;;;;;;;40.13;22.55;;;2.80;89.40;;;;;;4978908;28;20045;-72
2020/12/06 01:56:49;;;;;;;39.80;24.23;;;2.80;89.30;;;;;;4979505;28;20138;-72
2020/12/06 01:59:15;;;;;;;44.55;25.73;;;2.80;89.20;;;;;;4979117;28;20073;-72
2020/12/06 02:01:51;;;;;;;50.92;28.45;;;2.80;89.00;;;;;;4979002;28;20026;-73
2020/12/06 02:04:17;;;;;;;51.15;27.67;;;2.80;88.70;;;;;;4979611;28;20446;-73
2020/12/06 02:06:44;;;;;;;45.97;26.50;;;2.70;89.00;;;;;;4979996;28;20076;-74
2020/12/06 02:09:11;;;;;;;52.88;27.58;;;2.70;89.10;;;;;;4979036;28;20368;-72
2020/12/06 02:11:36;;;;;;;49.05;26.02;;;2.70;89.10;;;;;;4979520;28;20046;-72
2020/12/06 02:14:03;;;;;;;46.05;26.55;;;2.70;89.10;;;;;;4980944;28;20026;-72
2020/12/06 02:16:29;;;;;;;49.25;26.95;;;2.80;89.20;;;;;;4996556;28;20149;-72
2020/12/06 02:18:54;;;;;;;48.70;27.70;;;2.80;89.20;;;;;;4978879;28;20030;-72
2020/12/06 02:21:20;;;;;;;55.80;29.45;;;2.70;89.10;;;;;;4978711;28;20109;-73
2020/12/06 02:23:46;;;;;;;48.20;26.38;;;2.60;89.20;;;;;;4978830;28;20065;-72
2020/12/06 02:26:12;;;;;;;58.25;29.55;;;2.50;89.60;;;;;;4979026;28;20030;-72
2020/12/06 02:28:37;;;;;;;52.08;27.60;;;2.50;89.50;;;;;;4978941;28;20058;-72
2020/12/06 02:31:03;;;;;;;50.05;25.52;;;2.50;89.70;;;;;;4978963;28;20022;-73
2020/12/06 02:33:28;;;;;;;51.85;28.42;;;2.60;89.70;;;;;;4978657;28;20074;-73
2020/12/06 02:35:56;;;;;;;52.58;26.55;;;2.60;89.60;;;;;;4978401;28;20025;-73
2020/12/06 02:38:21;;;;;;;48.85;26.00;;;2.70;89.60;;;;;;4996191;28;20026;-72
2020/12/06 02:40:47;;;;;;;54.03;28.20;;;2.80;89.40;;;;;;4978735;28;20068;-72
2020/12/06 02:43:12;;;;;;;49.42;25.60;;;2.70;89.00;;;;;;4978604;28;20468;-72
2020/12/06 02:45:38;;;;;;;48.00;26.02;;;2.70;89.00;;;;;;4978377;28;20027;-72
2020/12/06 02:48:04;;;;;;;44.20;23.98;;;2.70;89.00;;;;;;4995624;28;20053;-72
2020/12/06 02:50:30;;;;;;;47.00;24.23;;;2.80;89.00;;;;;;4978561;28;20482;-73
2020/12/06 02:52:57;;;;;;;48.17;25.90;;;2.80;88.90;;;;;;4978449;28;20034;-73
2020/12/06 02:55:25;;;;;;;47.47;24.75;;;2.80;88.80;;;;;;4978623;28;20033;-73
2020/12/06 02:57:53;;;;;;;47.72;24.20;;;2.80;88.70;;;;;;4995717;28;20018;-73
2020/12/06 03:00:18;;;;;;;45.25;23.35;;;2.90;88.80;;;;;;4978376;28;20026;-73
2020/12/06 03:02:44;;;;;;;46.47;23.83;;;2.90;88.80;;;;;;4977664;28;20033;-73
2020/12/06 03:05:10;;;;;;;44.13;21.88;;;2.90;88.80;;;;;;4978065;28;20026;-73
2020/12/06 03:07:35;;;;;;;44.40;23.55;;;3.00;88.70;;;;;;4978025;28;20041;-73
2020/12/06 03:10:06;;;;;;;44.40;24.15;;;3.00;88.60;;;;;;4978045;28;20500;-73
2020/12/06 03:12:32;;;;;;;42.38;23.15;;;3.00;88.40;;;;;;4977730;28;20050;-73
2020/12/06 03:14:58;;;;;;;45.92;24.33;;;3.00;88.30;;;;;;4961664;28;20034;-73
2020/12/06 03:17:23;;;;;;;46.22;25.98;;;3.00;88.10;;;;;;4977826;28;20026;-73
2020/12/06 03:19:49;;;;;;;44.65;24.65;;;3.00;88.00;;;;;;4977972;28;20113;-78
2020/12/06 03:22:14;;;;;;;43.42;23.75;;;3.00;87.90;;;;;;4995449;28;20026;-73
2020/12/06 03:24:41;;;;;;;46.15;24.52;;;3.00;87.80;;;;;;4977736;28;20038;-73
2020/12/06 03:27:07;;;;;;;43.17;24.02;;;3.00;87.90;;;;;;4977747;28;20031;-78
2020/12/06 03:29:32;;;;;;;43.20;22.90;;;3.00;87.90;;;;;;4995092;28;20403;-72
2020/12/06 03:31:58;;;;;;;42.65;23.02;;;3.00;87.90;;;;;;4977647;28;20022;-73
2020/12/06 03:34:23;;;;;;;41.35;22.40;;;3.00;87.90;;;;;;4977606;28;20026;-73
2020/12/06 03:36:50;;;;;;;45.95;23.58;;;3.00;88.00;;;;;;4977673;28;20019;-72
2020/12/06 03:39:15;;;;;;;39.75;21.38;;;3.00;88.10;;;;;;4977401;28;20058;-72
2020/12/06 03:41:44;;;;;;;44.05;22.80;;;3.00;88.10;;;;;;4977540;28;20038;-76
2020/12/06 03:44:10;;;;;;;44.47;22.27;;;3.10;88.20;;;;;;4977630;28;20105;-74
2020/12/06 03:46:35;;;;;;;44.88;22.83;;;3.10;88.10;;;;;;4995071;28;20057;-73
2020/12/06 03:49:01;;;;;;;50.60;23.80;;;3.10;87.90;;;;;;4983973;28;20037;-73
2020/12/06 03:51:27;;;;;;;46.35;24.60;;;3.10;87.80;;;;;;4994894;28;20074;-73
2020/12/06 03:53:52;;;;;;;45.83;23.23;;;3.10;87.80;;;;;;5001400;28;20026;-75
2020/12/06 03:56:18;;;;;;;49.60;24.65;;;3.10;87.70;;;;;;4977997;28;20504;-73
2020/12/06 03:58:45;;;;;;;54.05;27.48;;;3.10;87.60;;;;;;4976940;28;20030;-73
2020/12/06 04:01:10;;;;;;;50.47;24.75;;;3.10;87.50;;;;;;4977229;28;20472;-74
2020/12/06 04:03:36;;;;;;;50.15;24.50;;;3.00;87.40;;;;;;4994599;28;20092;-73
2020/12/06 04:06:02;;;;;;;53.55;25.73;;;3.00;87.50;;;;;;4992898;28;20394;-73
2020/12/06 04:08:27;;;;;;;50.22;25.30;;;3.00;87.60;;;;;;4977078;28;20045;-73
2020/12/06 04:10:53;;;;;;;52.90;25.25;;;3.00;87.70;;;;;;4976857;28;20380;-73
2020/12/06 04:13:18;;;;;;;54.50;25.55;;;3.00;87.70;;;;;;4976787;28;20037;-73
2020/12/06 04:15:44;;;;;;;53.10;25.45;;;3.10;87.80;;;;;;4976948;28;20387;-73
2020/12/06 04:18:10;;;;;;;44.58;22.23;;;3.10;87.80;;;;;;4977590;28;20033;-74
2020/12/06 04:20:35;;;;;;;50.15;23.45;;;3.10;87.70;;;;;;4976976;28;20117;-73
2020/12/06 04:23:01;;;;;;;40.47;20.63;;;3.10;87.60;;;;;;4976425;28;20045;-73
2020/12/06 04:25:26;;;;;;;43.17;21.63;;;3.10;87.50;;;;;;4976684;28;20023;-73
2020/12/06 04:27:52;;;;;;;37.90;21.15;;;3.00;87.40;;;;;;4976482;28;20030;-73
2020/12/06 04:30:17;;;;;;;35.15;19.70;;;3.10;87.40;;;;;;4976898;28;20037;-74
2020/12/06 04:32:43;;;;;;;40.53;21.58;;;3.10;87.20;;;;;;4976725;28;20034;-73
2020/12/06 04:35:10;;;;;;;41.78;22.42;;;3.10;87.30;;;;;;4976468;28;20030;-73
2020/12/06 04:37:35;;;;;;;42.30;21.27;;;3.00;87.20;;;;;;4976616;28;20025;-73
2020/12/06 04:40:02;;;;;;;45.55;23.35;;;3.10;87.40;;;;;;4976673;28;20027;-73
2020/12/06 04:42:28;;;;;;;43.83;23.35;;;3.10;87.30;;;;;;4976234;28;20022;-73
2020/12/06 04:44:54;;;;;;;34.63;19.98;;;3.10;87.10;;;;;;4976426;28;20121;-74
2020/12/06 04:47:54;;;;;;;42.95;21.45;;;3.10;87.00;;;;;;4993671;28;20125;-73
2020/12/06 04:50:26;;;;;;;40.55;20.83;;;3.10;87.00;;;;;;4976568;28;20050;-74
2020/12/06 04:52:57;;;;;;;36.15;20.05;;;3.10;87.10;;;;;;4976169;28;20495;-74
2020/12/06 04:55:26;;;;;;;31.42;18.67;;;3.10;87.10;;;;;;4976605;28;20147;-73
2020/12/06 04:57:54;;;;;;;33.80;18.52;;;3.10;87.10;;;;;;4976237;28;20064;-72
2020/12/06 05:00:20;;;;;;;30.25;17.65;;;3.10;87.00;;;;;;4976485;28;20026;-73
2020/12/06 05:02:48;;;;;;;30.92;17.13;;;3.10;86.90;;;;;;4976389;28;20038;-73
2020/12/06 05:05:14;;;;;;;30.00;16.88;;;3.00;86.80;;;;;;4976166;28;20061;-72
2020/12/06 05:07:44;;;;;;;30.05;17.40;;;3.10;86.80;;;;;;4993471;28;20026;-73
2020/12/06 05:10:10;;;;;;;31.83;18.48;;;3.10;86.80;;;;;;4976433;28;20056;-73
2020/12/06 05:12:35;;;;;;;32.38;17.10;;;3.10;86.80;;;;;;4976260;28;20539;-73
2020/12/06 05:15:01;;;;;;;35.97;19.98;;;3.10;86.90;;;;;;4976405;28;20125;-73
2020/12/06 05:17:26;;;;;;;33.25;18.15;;;3.10;86.80;;;;;;4992739;28;20502;-75
2020/12/06 05:19:52;;;;;;;34.92;19.48;;;3.10;86.80;;;;;;4994915;28;20109;-73
2020/12/06 05:22:18;;;;;;;33.75;19.17;;;3.10;86.70;;;;;;4976255;28;20030;-73
2020/12/06 05:24:43;;;;;;;31.95;17.67;;;3.10;86.70;;;;;;4979044;28;20025;-75
2020/12/06 05:27:10;;;;;;;29.35;16.75;;;3.10;86.80;;;;;;4999055;28;20026;-77
2020/12/06 05:29:41;;;;;;;28.42;16.65;;;3.10;86.90;;;;;;4998634;28;20387;-73
2020/12/06 05:32:07;;;;;;;29.50;16.33;;;3.00;86.90;;;;;;4980102;28;20548;-73
2020/12/06 05:34:32;;;;;;;32.72;19.13;;;3.10;87.00;;;;;;4979941;28;20117;-73
2020/12/06 05:37:05;;;;;;;34.65;20.27;;;3.10;87.00;;;;;;4997159;28;20110;-73
2020/12/06 05:39:30;;;;;;;28.75;17.20;;;3.00;86.90;;;;;;4980208;28;20443;-73
2020/12/06 05:41:58;;;;;;;30.25;17.50;;;3.10;87.00;;;;;;4997388;28;20108;-77
2020/12/06 05:44:24;;;;;;;23.73;14.18;;;3.10;87.10;;;;;;4979805;28;20030;-73
2020/12/06 05:46:49;;;;;;;25.52;14.70;;;3.10;87.00;;;;;;4979756;28;20093;-74
2020/12/06 05:49:19;;;;;;;22.08;13.70;;;3.10;86.90;;;;;;4997327;28;20027;-73
2020/12/06 05:51:54;;;;;;;26.58;14.45;;;3.00;86.70;;;;;;4979549;28;20110;-75
2020/12/06 05:54:24;;;;;;;21.30;13.18;;;3.10;86.80;;;;;;4979498;28;20049;-73
2020/12/06 05:56:53;;;;;;;21.45;13.32;;;3.10;86.80;;;;;;4996987;28;20033;-73
2020/12/06 05:59:23;;;;;;;22.13;13.23;;;3.10;86.80;;;;;;4997682;28;20471;-73
2020/12/06 06:01:52;;;;;;;22.50;13.80;;;3.10;86.80;;;;;;4978905;28;20033;-73
2020/12/06 06:04:20;;;;;;;22.52;13.98;;;3.10;86.70;;;;;;4979485;28;20023;-73
2020/12/06 06:06:49;;;;;;;23.30;14.65;;;3.10;86.70;;;;;;4979086;28;20446;-73
2020/12/06 06:09:17;;;;;;;22.92;15.07;;;3.10;86.70;;;;;;4980466;28;20126;-73
2020/12/06 06:11:55;;;;;;;26.38;15.32;;;3.10;86.60;;;;;;4977849;28;20042;-74
2020/12/06 06:14:22;;;;;;;25.77;15.38;;;3.10;86.50;;;;;;4979413;28;20448;-73
2020/12/06 06:16:48;;;;;;;25.00;15.55;;;3.00;86.40;;;;;;4976496;28;20034;-73
2020/12/06 06:19:15;;;;;;;24.70;15.38;;;3.00;86.50;;;;;;4977043;28;20026;-73
2020/12/06 06:21:44;;;;;;;21.55;13.55;;;3.00;86.50;;;;;;4975927;28;20031;-73
2020/12/06 06:24:13;;;;;;;20.77;14.15;;;3.00;86.40;;;;;;4975766;28;20030;-73
2020/12/06 06:26:47;;;;;;;21.83;14.35;;;3.10;86.60;;;;;;4958499;28;20031;-73
2020/12/06 06:29:15;;;;;;;23.10;14.48;;;3.10;86.60;;;;;;4975526;28;20035;-73
2020/12/06 06:31:47;;;;;;;20.55;13.20;;;3.00;86.50;;;;;;4975691;28;20337;-73
2020/12/06 06:34:14;;;;;;;21.00;13.85;;;3.10;86.70;;;;;;4976842;28;20027;-73
2020/12/06 06:36:43;;;;;;;19.88;13.30;;;3.10;86.60;;;;;;4974516;28;20033;-73
2020/12/06 06:39:09;;;;;;;19.83;12.63;;;3.10;86.50;;;;;;4975401;28;20034;-73
2020/12/06 06:41:35;;;;;;;16.42;11.27;;;3.10;86.50;;;;;;4975149;28;20027;-73
2020/12/06 06:44:03;;;;;;;17.67;11.65;;;3.10;86.40;;;;;;4975299;28;20432;-73
2020/12/06 06:46:35;;;;;;;18.55;11.13;;;3.10;86.30;;;;;;4975224;28;20070;-73
2020/12/06 06:49:09;;;;;;;16.42;10.25;;;3.10;86.30;;;;;;4975156;28;20504;-74
2020/12/06 06:51:36;;;;;;;13.35;9.00;;;3.00;86.40;;;;;;4959257;28;20035;-73
2020/12/06 06:54:07;;;;;;;13.27;9.23;;;3.10;86.50;;;;;;4976524;28;20038;-73
2020/12/06 06:56:49;;;;;;;14.85;9.05;;;3.10;86.60;;;;;;4975291;28;20023;-73
2020/12/06 06:59:15;;;;;;;14.95;8.60;;;3.10;86.80;;;;;;4975267;28;20110;-73
2020/12/06 07:01:51;;;;;;;14.00;8.45;;;3.10;86.90;;;;;;4975027;28;20454;-73
2020/12/06 07:04:20;;;;;;;12.70;8.45;;;3.10;86.90;;;;;;4976355;28;20106;-74
2020/12/06 07:06:48;;;;;;;14.00;8.50;;;3.10;86.80;;;;;;4976297;28;20039;-74
2020/12/06 07:09:21;;;;;;;14.65;8.77;;;3.10;86.80;;;;;;4974923;28;20039;-72
2020/12/06 07:11:49;;;;;;;17.77;10.07;;;3.10;86.80;;;;;;4985047;28;20463;-73
2020/12/06 07:14:15;;;;;;;14.82;9.57;;;3.10;86.90;;;;;;4962084;28;20061;-72
2020/12/06 07:16:40;;;;;;;18.52;11.00;;;3.10;87.00;;;;;;4977734;28;20023;-73
2020/12/06 07:19:06;;;;;;;18.02;9.80;;;3.10;87.20;;;;;;4995405;28;20031;-74
2020/12/06 07:21:34;;;;;;;16.27;9.60;;;3.10;87.40;;;;;;4978059;28;20026;-73
2020/12/06 07:24:01;;;;;;;12.82;8.13;;;3.20;87.40;;;;;;4977812;28;20113;-73
2020/12/06 07:26:28;;;;;;;10.88;7.25;;;3.20;87.30;;;;;;4977787;28;20125;-73
2020/12/06 07:28:55;;;;;;;9.20;6.38;;;3.20;87.20;;;;;;4977761;28;20092;-74
2020/12/06 07:31:21;;;;;;;8.85;5.70;;;3.20;87.20;;;;;;4995204;28;20355;-75
2020/12/06 07:33:46;;;;;;;6.93;5.25;;;3.20;87.10;;;;;;4977445;28;20031;-75
2020/12/06 07:36:12;;;;;;;9.50;5.60;;;3.30;87.20;;;;;;4994808;28;20027;-74
2020/12/06 07:38:38;;;;;;;7.25;4.80;;;3.30;87.10;;;;;;4977305;28;20031;-74
2020/12/06 07:41:04;;;;;;;11.68;7.28;;;3.30;87.10;;;;;;4977746;28;20026;-72
2020/12/06 07:43:31;;;;;;;13.25;7.70;;;3.30;87.10;;;;;;4994908;28;20526;-75
2020/12/06 07:46:10;;;;;;;10.40;7.40;;;3.30;87.10;;;;;;4994752;28;20030;-72
2020/12/06 07:48:36;;;;;;;9.40;6.75;;;3.20;87.10;;;;;;4976391;28;20042;-75
2020/12/06 07:51:01;;;;;;;16.17;8.60;;;3.20;87.20;;;;;;4977159;28;20037;-74
2020/12/06 07:53:28;;;;;;;13.15;8.20;;;3.20;87.20;;;;;;4994563;28;20039;-75
2020/12/06 07:56:06;;;;;;;12.05;7.93;;;3.20;87.20;;;;;;4993422;28;20427;-74
2020/12/06 07:58:43;;;;;;;16.15;10.20;;;3.30;87.40;;;;;;4977265;28;20034;-79
2020/12/06 08:01:09;;;;;;;16.92;10.98;;;3.30;87.50;;;;;;4994794;28;20050;-75
2020/12/06 08:03:36;;;;;;;14.68;10.00;;;3.30;87.60;;;;;;4977173;28;20027;-74
2020/12/06 08:06:04;;;;;;;15.82;9.15;;;3.40;87.50;;;;;;4976783;28;20108;-74
2020/12/06 08:08:34;;;;;;;9.63;7.25;;;3.40;87.40;;;;;;4960858;28;20503;-74
2020/12/06 08:11:01;;;;;;;7.60;5.53;;;3.40;87.20;;;;;;4976849;28;20062;-74
2020/12/06 08:13:27;;;;;;;6.18;4.82;;;3.50;87.10;;;;;;4977010;28;20041;-74
2020/12/06 08:15:53;;;;;;;6.65;4.60;;;3.50;87.50;;;;;;4976689;28;20027;-74
2020/12/06 08:18:18;;;;;;;14.38;9.25;;;3.50;86.50;;;;;;4976820;28;20081;-75
2020/12/06 08:20:54;;;;;;;17.70;9.77;;;3.50;86.20;;;;;;4960681;28;20489;-78
2020/12/06 08:23:34;;;;;;;16.38;10.20;;;3.50;85.90;;;;;;4976755;28;20392;-78
2020/12/06 08:26:01;;;;;;;17.45;9.88;;;3.60;86.00;;;;;;4968590;28;20026;-79
2020/12/06 08:28:29;;;;;;;18.00;9.30;;;3.60;85.80;;;;;;4996926;28;20073;-79
2020/12/06 08:30:58;;;;;;;17.10;8.90;;;3.60;85.80;;;;;;4994602;28;20049;-78
2020/12/06 08:33:25;;;;;;;15.82;9.45;;;3.70;85.80;;;;;;4980893;28;20027;-78
2020/12/06 08:35:52;;;;;;;13.77;8.90;;;3.80;85.20;;;;;;4993151;28;20383;-77
2020/12/06 08:38:25;;;;;;;11.77;8.43;;;3.90;84.70;;;;;;4976907;28;20435;-77
2020/12/06 08:41:08;;;;;;;17.45;8.88;;;3.90;84.40;;;;;;4993825;28;20022;-79
2020/12/06 08:43:49;;;;;;;18.70;8.35;;;3.90;84.60;;;;;;4976471;28;20058;-73
2020/12/06 08:46:25;;;;;;;8.90;6.22;;;4.40;87.40;;;;;;4992661;28;20463;-73
2020/12/06 08:48:52;;;;;;;10.32;6.28;;;5.10;86.50;;;;;;4971762;28;20490;-73
2020/12/06 08:51:24;;;;;;;8.57;5.97;;;5.50;84.30;;;;;;4976437;28;20029;-73
2020/12/06 08:53:50;;;;;;;8.43;6.22;;;5.70;80.80;;;;;;4992514;28;20053;-73
2020/12/06 08:56:28;;;;;;;10.65;6.88;;;5.60;79.60;;;;;;4976172;28;20490;-73
2020/12/06 08:58:54;;;;;;;12.82;7.97;;;5.80;79.40;;;;;;4976023;28;20031;-73
2020/12/06 09:01:20;;;;;;;10.90;7.40;;;6.00;76.70;;;;;;4976358;28;20030;-73
2020/12/06 09:03:46;;;;;;;9.90;7.60;;;6.00;76.50;;;;;;4959943;28;20030;-73
2020/12/06 09:06:16;;;;;;;11.05;7.95;;;6.00;75.60;;;;;;4993690;28;20062;-74
2020/12/06 09:08:45;;;;;;;15.13;10.23;;;5.80;74.40;;;;;;4959623;28;20074;-74
2020/12/06 09:11:19;;;;;;;15.98;11.27;;;5.50;74.40;;;;;;4975871;28;20125;-74
2020/12/06 09:13:47;;;;;;;17.00;12.23;;;5.20;75.10;;;;;;4976151;28;20172;-74
2020/12/06 09:16:12;;;;;;;13.45;9.02;;;4.80;76.40;;;;;;4975825;28;20033;-74
2020/12/06 09:18:39;;;;;;;11.00;7.65;;;4.60;77.30;;;;;;4992264;28;20030;-74
2020/12/06 09:21:15;;;;;;;10.27;6.55;;;4.50;78.00;;;;;;4978639;28;20033;-75
2020/12/06 09:24:30;;;;;;;10.52;7.38;;;4.40;78.90;;;;;;4981592;28;20092;-74
2020/12/06 09:27:02;;;;;;;12.77;8.70;;;4.40;79.60;;;;;;4979153;28;20054;-75
2020/12/06 09:29:37;;;;;;;13.07;8.35;;;4.40;79.80;;;;;;4992712;28;20517;-72
2020/12/06 09:32:03;;;;;;;11.57;8.23;;;4.50;80.10;;;;;;4959754;28;20053;-73
2020/12/06 09:34:29;;;;;;;12.40;9.15;;;4.50;80.30;;;;;;4975762;28;20467;-73
2020/12/06 09:36:55;;;;;;;10.70;8.02;;;4.50;80.50;;;;;;4993128;28;20026;-72
2020/12/06 09:39:20;;;;;;;8.75;6.55;;;4.50;80.70;;;;;;4960210;28;20034;-72
2020/12/06 09:41:46;;;;;;;9.25;6.78;;;4.50;80.80;;;;;;4975846;28;20030;-72
2020/12/06 09:44:12;;;;;;;8.73;6.63;;;4.50;80.90;;;;;;4975988;28;20062;-74
2020/12/06 09:46:38;;;;;;;9.70;6.85;;;4.50;81.00;;;;;;4992038;28;20468;-74
2020/12/06 09:49:03;;;;;;;7.65;6.53;;;4.50;81.00;;;;;;4991699;28;20121;-72
2020/12/06 09:51:29;;;;;;;10.85;7.53;;;4.50;81.10;;;;;;4993067;28;20026;-72
2020/12/06 09:53:55;;;;;;;14.50;8.40;;;4.50;81.20;;;;;;4959714;28;20125;-74
2020/12/06 09:56:28;;;;;;;13.15;8.77;;;4.50;81.40;;;;;;4959651;28;20442;-74
2020/12/06 09:58:54;;;;;;;12.13;7.55;;;4.40;81.50;;;;;;4975333;28;20066;-73
2020/12/06 10:01:20;;;;;;;10.63;7.18;;;4.40;81.60;;;;;;4993164;28;20104;-74
2020/12/06 10:03:46;;;;;;;12.07;7.18;;;4.50;81.70;;;;;;4993100;28;20407;-74
2020/12/06 10:06:12;;;;;;;9.63;6.45;;;4.50;81.70;;;;;;4975547;28;20027;-74
2020/12/06 10:08:38;;;;;;;9.80;6.30;;;4.50;81.80;;;;;;4975327;28;20392;-74
2020/12/06 10:11:04;;;;;;;8.50;5.85;;;4.60;81.90;;;;;;4975383;28;20045;-74
2020/12/06 10:13:29;;;;;;;10.43;6.10;;;4.60;82.10;;;;;;4962851;28;20043;-74
2020/12/06 10:15:55;;;;;;;8.25;6.03;;;4.70;82.20;;;;;;4979105;28;20023;-78
2020/12/06 10:18:20;;;;;;;15.30;8.45;;;4.70;82.10;;;;;;4978880;28;20069;-74
2020/12/06 10:20:46;;;;;;;12.25;7.47;;;4.70;81.90;;;;;;4979286;28;20029;-76
2020/12/06 10:23:11;;;;;;;10.27;6.32;;;4.70;81.60;;;;;;4996544;28;20037;-75
2020/12/06 10:25:37;;;;;;;9.05;5.78;;;4.70;81.40;;;;;;4978817;28;20098;-75
2020/12/06 10:28:03;;;;;;;8.32;5.55;;;4.70;81.50;;;;;;4978748;28;20594;-74
2020/12/06 10:30:28;;;;;;;9.05;5.20;;;4.80;81.50;;;;;;4978265;28;20064;-75
2020/12/06 10:32:54;;;;;;;7.28;4.45;;;4.80;81.50;;;;;;4978444;28;20019;-75
2020/12/06 10:35:19;;;;;;;6.05;4.35;;;4.80;81.50;;;;;;4978977;28;20026;-81
2020/12/06 10:37:47;;;;;;;5.10;4.00;;;4.90;81.50;;;;;;4996179;28;20089;-75
2020/12/06 10:40:12;;;;;;;8.57;4.97;;;4.90;81.60;;;;;;4996218;28;20022;-76
2020/12/06 10:42:40;;;;;;;6.20;4.38;;;5.00;81.30;;;;;;4996381;28;20026;-76
2020/12/06 10:45:05;;;;;;;8.15;4.97;;;5.00;81.20;;;;;;4996511;28;20052;-76
2020/12/06 10:47:31;;;;;;;9.07;5.18;;;5.00;81.10;;;;;;4995536;28;20117;-75
2020/12/06 10:49:57;;;;;;;11.95;6.18;;;5.00;81.00;;;;;;4964930;28;20038;-75
2020/12/06 10:52:22;;;;;;;8.95;6.32;;;5.00;81.00;;;;;;4997363;28;20026;-77
2020/12/06 10:54:54;;;;;;;10.68;6.18;;;5.00;80.90;;;;;;4980042;28;20027;-76
2020/12/06 10:57:20;;;;;;;8.35;5.78;;;4.90;81.10;;;;;;4979869;28;20200;-75
2020/12/06 10:59:46;;;;;;;8.02;5.40;;;4.90;81.20;;;;;;4980004;28;20502;-76
2020/12/06 11:02:12;;;;;;;6.40;4.78;;;4.90;81.40;;;;;;4995903;28;20034;-75
2020/12/06 11:04:39;;;;;;;5.82;4.28;;;4.80;81.70;;;;;;4977873;28;20089;-75
2020/12/06 11:07:04;;;;;;;5.05;3.78;;;4.80;81.80;;;;;;4978312;28;20030;-75
2020/12/06 11:09:30;;;;;;;5.68;4.07;;;4.80;81.70;;;;;;4977925;28;20038;-75
2020/12/06 11:11:56;;;;;;;7.10;4.70;;;4.80;81.70;;;;;;4974886;28;20059;-75
2020/12/06 11:14:21;;;;;;;9.23;5.20;;;4.80;81.40;;;;;;4975763;28;20109;-74
2020/12/06 11:16:50;;;;;;;9.93;5.43;;;4.80;81.20;;;;;;4971316;28;20027;-76
2020/12/06 11:19:16;;;;;;;8.27;6.00;;;4.80;81.90;;;;;;4970096;28;20077;-80
2020/12/06 11:21:42;;;;;;;9.35;5.95;;;4.80;81.50;;;;;;4983670;28;20479;-75
2020/12/06 11:24:08;;;;;;;8.07;5.57;;;4.80;81.20;;;;;;4981778;28;20122;-75
2020/12/06 11:26:34;;;;;;;9.55;5.85;;;4.90;82.30;;;;;;4986847;28;20058;-75
2020/12/06 11:29:01;;;;;;;8.55;5.80;;;4.90;81.50;;;;;;4983070;28;20038;-76
2020/12/06 11:31:26;;;;;;;9.93;6.38;;;4.90;81.40;;;;;;4958535;28;20030;-74
2020/12/06 11:33:52;;;;;;;9.18;5.93;;;4.90;81.40;;;;;;4958344;28;20019;-75
2020/12/06 11:36:18;;;;;;;11.30;7.10;;;4.90;81.40;;;;;;4974564;28;20073;-76
2020/12/06 11:38:45;;;;;;;14.40;6.80;;;4.90;81.70;;;;;;4977144;28;20022;-76
2020/12/06 11:41:11;;;;;;;9.82;6.38;;;4.90;81.60;;;;;;4958444;28;20491;-75
2020/12/06 11:43:36;;;;;;;10.05;7.03;;;4.90;82.40;;;;;;4958227;28;20078;-74
2020/12/06 11:46:02;;;;;;;13.15;7.60;;;4.90;82.20;;;;;;4975293;28;20031;-73
2020/12/06 11:48:29;;;;;;;14.98;8.05;;;5.00;82.20;;;;;;4942318;28;20043;-74
2020/12/06 11:50:54;;;;;;;13.13;8.07;;;5.00;82.00;;;;;;4974733;28;20476;-73
2020/12/06 11:53:20;;;;;;;13.88;8.13;;;5.00;82.00;;;;;;4958230;28;20086;-74
2020/12/06 11:55:45;;;;;;;11.38;7.50;;;5.00;82.10;;;;;;4959371;28;20244;-73
2020/12/06 11:58:11;;;;;;;13.50;8.25;;;5.10;82.30;;;;;;4958763;28;20472;-73
2020/12/06 12:00:36;;;;;;;12.15;8.32;;;5.10;82.30;;;;;;4960571;28;20099;-74
2020/12/06 12:03:02;;;;;;;11.25;7.18;;;5.10;83.00;;;;;;4962914;28;20023;-73
2020/12/06 12:05:28;;;;;;;11.35;7.70;;;5.10;82.20;;;;;;4959681;28;20023;-73
2020/12/06 12:07:54;;;;;;;9.43;6.65;;;5.10;82.10;;;;;;4958597;28;20511;-74
2020/12/06 12:10:21;;;;;;;10.32;7.63;;;5.10;82.20;;;;;;4975615;28;20113;-77
2020/12/06 12:12:47;;;;;;;14.50;8.93;;;5.10;82.40;;;;;;4943223;28;20054;-73
2020/12/06 12:15:14;;;;;;;19.55;10.50;;;5.10;82.40;;;;;;5005799;28;20022;-73
2020/12/06 12:17:41;;;;;;;12.43;8.27;;;5.10;82.30;;;;;;4994353;28;20026;-74
2020/12/06 12:20:07;;;;;;;13.20;8.10;;;5.00;81.50;;;;;;4992851;28;20035;-74
2020/12/06 12:22:33;;;;;;;18.92;9.43;;;4.90;81.70;;;;;;4994084;28;20607;-74
2020/12/06 12:24:59;;;;;;;14.45;8.93;;;4.90;82.20;;;;;;4995885;28;20033;-74
2020/12/06 12:27:25;;;;;;;10.85;7.30;;;4.90;82.50;;;;;;5001091;28;20018;-73
2020/12/06 12:29:51;;;;;;;12.88;7.63;;;4.90;82.50;;;;;;4986032;28;20379;-74
2020/12/06 12:32:16;;;;;;;11.60;7.07;;;4.90;82.40;;;;;;4986480;28;20508;-74
2020/12/06 12:34:42;;;;;;;12.73;8.30;;;4.90;82.30;;;;;;5013426;28;20033;-74
2020/12/06 12:37:08;;;;;;;14.52;8.50;;;4.90;82.40;;;;;;4997498;28;20026;-73
2020/12/06 12:39:34;;;;;;;12.10;8.63;;;5.00;82.60;;;;;;5013773;28;20100;-73
2020/12/06 12:42:00;;;;;;;14.20;8.68;;;5.10;83.00;;;;;;5012314;28;20456;-74
2020/12/06 12:44:30;;;;;;;14.25;8.48;;;5.10;82.70;;;;;;4996289;28;20021;-73